Rostein — LLHI — position and weather

sailwx.info

Track history (hours):
 
Tides and Currents Weather Stations Pressure Air Temp Water Temp Dewpoint Dewpoint Depression Visibility Wind Speed Wind Dir Waves Ship Positions

Rostein

Last reported at 2015-Jun-24 10:33 UTC. Time now 2015-Jul-04 20:45 UTC.
Position N 63°34' E 009°22'.
Warning: this ship's position is 10 days out of date.

Length 57 m; draft 5 m.

Type: Cargo ship. MMSI: 257210000.

Date/timePositionNaut miles runAvg speedWind from/ knotsBaromVisibWave heightAir tempDewpointWater temp
2015-Jun-24 10:33N 63°34' E 009°22'8 8.6
2015-Jun-24 09:34N 63°42' E 009°30'1111.1
2015-Jun-24 08:34N 63°52' E 009°41'1110.5
2015-Jun-24 07:33N 63°60' E 009°57'5410.7
2015-Jun-24 02:33N 64°46' E 011°01'1110.6
2015-Jun-24 01:34N 64°53' E 011°19'1111.1
2015-Jun-24 00:34N 65°00' E 011°39'1311.3
2015-Jun-23 23:24N 65°12' E 011°53'30610.5
2015-Jun-22 18:16N 69°34' E 018°46'6 8.0
2015-Jun-22 17:33N 69°38' E 018°56'  
2015-Jun-16 22:33N 69°42' E 019°03'3 3.2
2015-Jun-16 21:33N 69°39' E 018°58'0 0.0
2015-Jun-16 20:33N 69°39' E 018°58'  
Track history (hours):
 
Tides and Currents Weather Stations Pressure Air Temp Water Temp Dewpoint Dewpoint Depression Visibility Wind Speed Wind Dir Waves Ship Positions

Rostein

Last reported at 2015-Jun-24 10:33 UTC. Time now 2015-Jul-04 20:45 UTC.
Position N 63°34' E 009°22'.
Warning: this ship's position is 10 days out of date.

Length 57 m; draft 5 m.

Type: Cargo ship. MMSI: 257210000.

Date/timePositionNaut miles runAvg speedWind from/ knotsBaromVisibWave heightAir tempDewpointWater temp
2015-Jun-24 10:33N 63°34' E 009°22'8 8.6
2015-Jun-24 09:34N 63°42' E 009°30'1111.1
2015-Jun-24 08:34N 63°52' E 009°41'1110.5
2015-Jun-24 07:33N 63°60' E 009°57'5410.7
2015-Jun-24 02:33N 64°46' E 011°01'1110.6
2015-Jun-24 01:34N 64°53' E 011°19'1111.1
2015-Jun-24 00:34N 65°00' E 011°39'1311.3
2015-Jun-23 23:24N 65°12' E 011°53'30610.5
2015-Jun-22 18:16N 69°34' E 018°46'6 8.0
2015-Jun-22 17:33N 69°38' E 018°56'  
2015-Jun-16 22:33N 69°42' E 019°03'3 3.2
2015-Jun-16 21:33N 69°39' E 018°58'0 0.0
2015-Jun-16 20:33N 69°39' E 018°58'  

Dump ship's entire track history